Waldo, Ohio
Current Conditions -  °F | °C
As of 3:53 AM on Monday 24 Nov 2014 (Local Time) from KMNN Reporting Station
Overcast Overcast  
Wind Chill: 58°   Ceiling: 1700
Heat Index: 58°   Visibility: 10mi
Dew Point: 54°   Wind: 26mph
Humidity: 87%   Direction: 220°SW
Pressure: 29.27"   Gusts: 35mph
Location:  40.46°N, 83.08°W
Report Text: KMNN 240853Z AUTO 22023G30KT 10SM FEW011 BKN017 OVC023 14/12 A2927 RMK AO2 PK WND 20034/0809 RAB06E17 SLP909 P0000 60001 T01440122 53006 TSNO
Loading
Personal Weather Stations






























Interactive Weather Map New forecast layout! Learn more

10-Day Weather Forecast

Advertisements
Track Severe Weather on mobile